sensor_id;sensor_type;location;lat;lon;timestamp;P1;durP1;ratioP1;P2;durP2;ratioP2
67564;SDS011;54393;53.556;49.216;2022-12-11T00:00:40;1.87;;;1.42;;
67564;SDS011;54393;53.556;49.216;2022-12-11T00:03:06;1.67;;;1.55;;
67564;SDS011;54393;53.556;49.216;2022-12-11T00:05:33;1.80;;;1.33;;
67564;SDS011;54393;53.556;49.216;2022-12-11T00:07:59;1.45;;;1.30;;
67564;SDS011;54393;53.556;49.216;2022-12-11T00:10:26;1.37;;;1.15;;
67564;SDS011;54393;53.556;49.216;2022-12-11T00:12:52;1.75;;;1.65;;
67564;SDS011;54393;53.556;49.216;2022-12-11T00:15:19;1.40;;;1.30;;
67564;SDS011;54393;53.556;49.216;2022-12-11T00:17:45;3.60;;;1.30;;
67564;SDS011;54393;53.556;49.216;2022-12-11T00:20:12;1.45;;;1.10;;
67564;SDS011;54393;53.556;49.216;2022-12-11T00:22:38;1.65;;;1.30;;
67564;SDS011;54393;53.556;49.216;2022-12-11T00:25:05;2.05;;;1.65;;
67564;SDS011;54393;53.556;49.216;2022-12-11T00:27:32;1.58;;;1.35;;
67564;SDS011;54393;53.556;49.216;2022-12-11T00:29:58;4.55;;;1.30;;
67564;SDS011;54393;53.556;49.216;2022-12-11T00:32:25;2.35;;;1.48;;
67564;SDS011;54393;53.556;49.216;2022-12-11T00:34:51;1.45;;;1.33;;
67564;SDS011;54393;53.556;49.216;2022-12-11T00:37:18;1.40;;;1.23;;
67564;SDS011;54393;53.556;49.216;2022-12-11T00:39:44;1.40;;;1.30;;
67564;SDS011;54393;53.556;49.216;2022-12-11T00:42:11;1.62;;;1.40;;
67564;SDS011;54393;53.556;49.216;2022-12-11T00:44:37;2.15;;;1.80;;
67564;SDS011;54393;53.556;49.216;2022-12-11T00:47:04;1.60;;;1.50;;
67564;SDS011;54393;53.556;49.216;2022-12-11T00:49:30;1.52;;;1.42;;
67564;SDS011;54393;53.556;49.216;2022-12-11T00:51:57;3.28;;;1.60;;
67564;SDS011;54393;53.556;49.216;2022-12-11T00:54:23;1.90;;;1.50;;
67564;SDS011;54393;53.556;49.216;2022-12-11T00:56:50;2.42;;;1.67;;
67564;SDS011;54393;53.556;49.216;2022-12-11T00:59:16;2.70;;;1.80;;
67564;SDS011;54393;53.556;49.216;2022-12-11T01:01:42;2.12;;;1.73;;
67564;SDS011;54393;53.556;49.216;2022-12-11T01:04:09;3.10;;;1.40;;
67564;SDS011;54393;53.556;49.216;2022-12-11T01:06:35;1.65;;;1.52;;
67564;SDS011;54393;53.556;49.216;2022-12-11T01:09:02;1.40;;;1.30;;
67564;SDS011;54393;53.556;49.216;2022-12-11T01:11:46;3.30;;;1.42;;
67564;SDS011;54393;53.556;49.216;2022-12-11T01:14:13;2.00;;;1.42;;
67564;SDS011;54393;53.556;49.216;2022-12-11T01:16:39;3.35;;;1.70;;
67564;SDS011;54393;53.556;49.216;2022-12-11T01:19:06;3.00;;;1.40;;
67564;SDS011;54393;53.556;49.216;2022-12-11T01:21:33;3.62;;;1.85;;
67564;SDS011;54393;53.556;49.216;2022-12-11T01:23:59;2.42;;;2.12;;
67564;SDS011;54393;53.556;49.216;2022-12-11T01:26:26;1.62;;;1.50;;
67564;SDS011;54393;53.556;49.216;2022-12-11T01:28:52;1.70;;;1.60;;
67564;SDS011;54393;53.556;49.216;2022-12-11T01:31:19;3.25;;;1.62;;
67564;SDS011;54393;53.556;49.216;2022-12-11T01:33:46;2.40;;;2.00;;
67564;SDS011;54393;53.556;49.216;2022-12-11T01:36:14;2.92;;;2.00;;
67564;SDS011;54393;53.556;49.216;2022-12-11T01:38:42;1.98;;;1.83;;
67564;SDS011;54393;53.556;49.216;2022-12-11T01:41:09;4.53;;;2.25;;
67564;SDS011;54393;53.556;49.216;2022-12-11T01:46:41;3.37;;;2.03;;
67564;SDS011;54393;53.556;49.216;2022-12-11T01:49:09;2.60;;;1.52;;
67564;SDS011;54393;53.556;49.216;2022-12-11T01:51:45;2.25;;;2.05;;
67564;SDS011;54393;53.556;49.216;2022-12-11T01:54:18;2.10;;;1.90;;
67564;SDS011;54393;53.556;49.216;2022-12-11T01:56:46;2.80;;;2.15;;
67564;SDS011;54393;53.556;49.216;2022-12-11T01:59:14;3.62;;;2.10;;
67564;SDS011;54393;53.556;49.216;2022-12-11T02:01:44;2.15;;;1.87;;
67564;SDS011;54393;53.556;49.216;2022-12-11T02:04:35;2.45;;;2.17;;
67564;SDS011;54393;53.556;49.216;2022-12-11T02:07:03;2.90;;;2.25;;
67564;SDS011;54393;53.556;49.216;2022-12-11T02:09:31;2.62;;;2.08;;
67564;SDS011;54393;53.556;49.216;2022-12-11T02:19:56;2.00;;;1.87;;
67564;SDS011;54393;53.556;49.216;2022-12-11T02:25:31;2.65;;;1.92;;
67564;SDS011;54393;53.556;49.216;2022-12-11T02:28:12;3.25;;;2.22;;
67564;SDS011;54393;53.556;49.216;2022-12-11T02:30:58;2.87;;;2.05;;
67564;SDS011;54393;53.556;49.216;2022-12-11T02:33:32;2.12;;;1.98;;
67564;SDS011;54393;53.556;49.216;2022-12-11T02:36:06;2.70;;;2.50;;
67564;SDS011;54393;53.556;49.216;2022-12-11T02:38:35;3.37;;;2.30;;
67564;SDS011;54393;53.556;49.216;2022-12-11T02:41:03;3.40;;;2.33;;
67564;SDS011;54393;53.556;49.216;2022-12-11T02:43:31;3.12;;;2.15;;
67564;SDS011;54393;53.556;49.216;2022-12-11T02:45:59;3.40;;;2.20;;
67564;SDS011;54393;53.556;49.216;2022-12-11T02:48:27;2.55;;;2.33;;
67564;SDS011;54393;53.556;49.216;2022-12-11T02:50:55;2.17;;;1.98;;
67564;SDS011;54393;53.556;49.216;2022-12-11T02:53:23;3.30;;;2.22;;
67564;SDS011;54393;53.556;49.216;2022-12-11T02:55:54;3.92;;;2.42;;
67564;SDS011;54393;53.556;49.216;2022-12-11T02:58:28;2.35;;;1.67;;
67564;SDS011;54393;53.556;49.216;2022-12-11T03:00:56;2.30;;;2.00;;
67564;SDS011;54393;53.556;49.216;2022-12-11T03:03:22;5.25;;;2.05;;
67564;SDS011;54393;53.556;49.216;2022-12-11T03:05:49;4.78;;;2.40;;
67564;SDS011;54393;53.556;49.216;2022-12-11T03:08:15;3.58;;;2.30;;
67564;SDS011;54393;53.556;49.216;2022-12-11T03:10:43;2.55;;;2.30;;
67564;SDS011;54393;53.556;49.216;2022-12-11T03:13:09;4.87;;;2.03;;
67564;SDS011;54393;53.556;49.216;2022-12-11T03:18:33;2.40;;;2.05;;
67564;SDS011;54393;53.556;49.216;2022-12-11T03:21:12;2.33;;;1.67;;
67564;SDS011;54393;53.556;49.216;2022-12-11T03:24:05;2.28;;;2.03;;
67564;SDS011;54393;53.556;49.216;2022-12-11T03:26:54;3.50;;;2.17;;
67564;SDS011;54393;53.556;49.216;2022-12-11T03:29:29;4.12;;;2.33;;
67564;SDS011;54393;53.556;49.216;2022-12-11T03:34:30;2.50;;;2.30;;
67564;SDS011;54393;53.556;49.216;2022-12-11T03:37:01;3.83;;;2.30;;
67564;SDS011;54393;53.556;49.216;2022-12-11T03:39:29;5.32;;;2.37;;
67564;SDS011;54393;53.556;49.216;2022-12-11T03:41:59;2.72;;;2.30;;
67564;SDS011;54393;53.556;49.216;2022-12-11T03:44:27;5.90;;;2.72;;
67564;SDS011;54393;53.556;49.216;2022-12-11T03:46:55;4.47;;;2.10;;
67564;SDS011;54393;53.556;49.216;2022-12-11T03:49:23;2.65;;;2.45;;
67564;SDS011;54393;53.556;49.216;2022-12-11T03:51:53;4.18;;;2.83;;
67564;SDS011;54393;53.556;49.216;2022-12-11T03:54:21;7.32;;;2.33;;
67564;SDS011;54393;53.556;49.216;2022-12-11T03:56:48;3.75;;;2.85;;
67564;SDS011;54393;53.556;49.216;2022-12-11T03:59:18;5.15;;;2.50;;
67564;SDS011;54393;53.556;49.216;2022-12-11T04:01:44;3.83;;;2.20;;
67564;SDS011;54393;53.556;49.216;2022-12-11T04:04:11;3.45;;;2.42;;
67564;SDS011;54393;53.556;49.216;2022-12-11T04:06:37;3.90;;;2.67;;
67564;SDS011;54393;53.556;49.216;2022-12-11T04:09:04;4.25;;;2.58;;
67564;SDS011;54393;53.556;49.216;2022-12-11T04:11:30;3.50;;;2.92;;
67564;SDS011;54393;53.556;49.216;2022-12-11T04:14:04;3.00;;;2.67;;
67564;SDS011;54393;53.556;49.216;2022-12-11T04:16:53;2.67;;;2.35;;
67564;SDS011;54393;53.556;49.216;2022-12-11T04:19:20;3.10;;;2.80;;
67564;SDS011;54393;53.556;49.216;2022-12-11T04:22:05;5.10;;;2.62;;
67564;SDS011;54393;53.556;49.216;2022-12-11T04:24:50;4.57;;;2.95;;
67564;SDS011;54393;53.556;49.216;2022-12-11T04:27:17;2.83;;;2.53;;
67564;SDS011;54393;53.556;49.216;2022-12-11T04:30:04;4.45;;;2.60;;
67564;SDS011;54393;53.556;49.216;2022-12-11T04:32:32;4.85;;;2.72;;
67564;SDS011;54393;53.556;49.216;2022-12-11T04:34:59;3.08;;;2.58;;
67564;SDS011;54393;53.556;49.216;2022-12-11T04:37:26;3.08;;;2.50;;
67564;SDS011;54393;53.556;49.216;2022-12-11T04:39:52;4.97;;;3.37;;
67564;SDS011;54393;53.556;49.216;2022-12-11T04:42:19;3.67;;;2.80;;
67564;SDS011;54393;53.556;49.216;2022-12-11T04:44:45;5.15;;;2.97;;
67564;SDS011;54393;53.556;49.216;2022-12-11T04:47:12;4.15;;;2.87;;
67564;SDS011;54393;53.556;49.216;2022-12-11T04:49:38;2.90;;;2.60;;
67564;SDS011;54393;53.556;49.216;2022-12-11T04:52:05;5.95;;;2.90;;
67564;SDS011;54393;53.556;49.216;2022-12-11T04:54:31;2.50;;;2.30;;
67564;SDS011;54393;53.556;49.216;2022-12-11T04:56:58;3.40;;;2.30;;
67564;SDS011;54393;53.556;49.216;2022-12-11T04:59:24;4.32;;;2.67;;
67564;SDS011;54393;53.556;49.216;2022-12-11T05:01:51;2.95;;;2.62;;
67564;SDS011;54393;53.556;49.216;2022-12-11T05:04:17;2.95;;;2.75;;
67564;SDS011;54393;53.556;49.216;2022-12-11T05:06:44;3.58;;;2.62;;
67564;SDS011;54393;53.556;49.216;2022-12-11T05:09:10;3.00;;;2.67;;
67564;SDS011;54393;53.556;49.216;2022-12-11T05:11:37;3.65;;;2.60;;
67564;SDS011;54393;53.556;49.216;2022-12-11T05:14:04;3.70;;;2.50;;
67564;SDS011;54393;53.556;49.216;2022-12-11T05:16:30;4.12;;;2.92;;
67564;SDS011;54393;53.556;49.216;2022-12-11T05:18:57;4.15;;;2.97;;
67564;SDS011;54393;53.556;49.216;2022-12-11T05:21:23;2.75;;;2.47;;
67564;SDS011;54393;53.556;49.216;2022-12-11T05:23:50;2.70;;;2.50;;
67564;SDS011;54393;53.556;49.216;2022-12-11T05:26:17;3.00;;;2.65;;
67564;SDS011;54393;53.556;49.216;2022-12-11T05:28:45;3.10;;;2.80;;
67564;SDS011;54393;53.556;49.216;2022-12-11T05:31:17;3.53;;;2.42;;
67564;SDS011;54393;53.556;49.216;2022-12-11T05:33:45;4.30;;;2.75;;
67564;SDS011;54393;53.556;49.216;2022-12-11T05:36:35;2.60;;;2.35;;
67564;SDS011;54393;53.556;49.216;2022-12-11T05:39:01;3.28;;;2.60;;
67564;SDS011;54393;53.556;49.216;2022-12-11T05:41:29;4.80;;;2.87;;
67564;SDS011;54393;53.556;49.216;2022-12-11T05:43:57;3.95;;;2.28;;
67564;SDS011;54393;53.556;49.216;2022-12-11T05:46:27;2.87;;;2.62;;
67564;SDS011;54393;53.556;49.216;2022-12-11T05:48:56;2.40;;;2.20;;
67564;SDS011;54393;53.556;49.216;2022-12-11T05:51:23;4.87;;;2.70;;
67564;SDS011;54393;53.556;49.216;2022-12-11T05:53:50;3.25;;;2.55;;
67564;SDS011;54393;53.556;49.216;2022-12-11T05:56:18;2.85;;;2.55;;
67564;SDS011;54393;53.556;49.216;2022-12-11T05:58:49;3.90;;;2.62;;
67564;SDS011;54393;53.556;49.216;2022-12-11T06:01:20;2.80;;;2.42;;
67564;SDS011;54393;53.556;49.216;2022-12-11T06:03:48;3.65;;;2.65;;
67564;SDS011;54393;53.556;49.216;2022-12-11T06:06:20;4.65;;;2.40;;
67564;SDS011;54393;53.556;49.216;2022-12-11T06:08:51;3.70;;;2.25;;
67564;SDS011;54393;53.556;49.216;2022-12-11T06:11:18;3.67;;;2.80;;
67564;SDS011;54393;53.556;49.216;2022-12-11T06:13:45;3.67;;;2.55;;
67564;SDS011;54393;53.556;49.216;2022-12-11T06:16:12;2.78;;;2.50;;
67564;SDS011;54393;53.556;49.216;2022-12-11T06:18:39;2.87;;;2.62;;
67564;SDS011;54393;53.556;49.216;2022-12-11T06:21:11;2.80;;;1.95;;
67564;SDS011;54393;53.556;49.216;2022-12-11T06:23:49;4.32;;;2.87;;
67564;SDS011;54393;53.556;49.216;2022-12-11T06:26:16;2.70;;;2.50;;
67564;SDS011;54393;53.556;49.216;2022-12-11T06:28:43;2.90;;;2.37;;
67564;SDS011;54393;53.556;49.216;2022-12-11T06:31:10;4.20;;;2.55;;
67564;SDS011;54393;53.556;49.216;2022-12-11T06:33:37;3.37;;;2.50;;
67564;SDS011;54393;53.556;49.216;2022-12-11T06:36:05;3.60;;;2.80;;
67564;SDS011;54393;53.556;49.216;2022-12-11T06:38:33;2.42;;;2.22;;
67564;SDS011;54393;53.556;49.216;2022-12-11T06:41:00;2.60;;;2.40;;
67564;SDS011;54393;53.556;49.216;2022-12-11T06:43:29;3.65;;;2.65;;
67564;SDS011;54393;53.556;49.216;2022-12-11T06:45:56;5.43;;;2.30;;
67564;SDS011;54393;53.556;49.216;2022-12-11T06:48:23;2.75;;;2.45;;
67564;SDS011;54393;53.556;49.216;2022-12-11T06:50:50;3.05;;;2.85;;
67564;SDS011;54393;53.556;49.216;2022-12-11T06:53:16;2.53;;;2.33;;
67564;SDS011;54393;53.556;49.216;2022-12-11T06:55:43;3.40;;;2.58;;
67564;SDS011;54393;53.556;49.216;2022-12-11T06:58:09;3.55;;;2.37;;
67564;SDS011;54393;53.556;49.216;2022-12-11T07:00:36;3.00;;;2.67;;
67564;SDS011;54393;53.556;49.216;2022-12-11T07:03:03;2.78;;;2.35;;
67564;SDS011;54393;53.556;49.216;2022-12-11T07:05:30;3.65;;;2.62;;
67564;SDS011;54393;53.556;49.216;2022-12-11T07:07:57;3.03;;;2.83;;
67564;SDS011;54393;53.556;49.216;2022-12-11T07:10:24;3.85;;;2.58;;
67564;SDS011;54393;53.556;49.216;2022-12-11T07:12:51;2.45;;;2.25;;
67564;SDS011;54393;53.556;49.216;2022-12-11T07:15:18;3.53;;;2.60;;
67564;SDS011;54393;53.556;49.216;2022-12-11T07:17:45;3.33;;;2.30;;
67564;SDS011;54393;53.556;49.216;2022-12-11T07:20:11;3.62;;;2.50;;
67564;SDS011;54393;53.556;49.216;2022-12-11T07:22:38;4.97;;;2.80;;
67564;SDS011;54393;53.556;49.216;2022-12-11T07:25:05;3.62;;;2.42;;
67564;SDS011;54393;53.556;49.216;2022-12-11T07:27:31;2.92;;;2.72;;
67564;SDS011;54393;53.556;49.216;2022-12-11T07:29:58;3.10;;;2.80;;
67564;SDS011;54393;53.556;49.216;2022-12-11T07:32:24;3.42;;;2.75;;
67564;SDS011;54393;53.556;49.216;2022-12-11T07:34:51;4.07;;;2.67;;
67564;SDS011;54393;53.556;49.216;2022-12-11T07:37:17;2.83;;;2.62;;
67564;SDS011;54393;53.556;49.216;2022-12-11T07:39:44;2.72;;;2.50;;
67564;SDS011;54393;53.556;49.216;2022-12-11T07:42:10;2.55;;;2.35;;
67564;SDS011;54393;53.556;49.216;2022-12-11T07:44:37;3.37;;;3.00;;
67564;SDS011;54393;53.556;49.216;2022-12-11T07:47:03;3.35;;;2.87;;
67564;SDS011;54393;53.556;49.216;2022-12-11T07:49:29;3.50;;;2.75;;
67564;SDS011;54393;53.556;49.216;2022-12-11T07:51:56;3.30;;;2.35;;
67564;SDS011;54393;53.556;49.216;2022-12-11T07:54:23;2.70;;;2.50;;
67564;SDS011;54393;53.556;49.216;2022-12-11T07:56:49;3.33;;;2.62;;
67564;SDS011;54393;53.556;49.216;2022-12-11T07:59:15;2.47;;;2.28;;
67564;SDS011;54393;53.556;49.216;2022-12-11T08:01:42;2.80;;;2.60;;
67564;SDS011;54393;53.556;49.216;2022-12-11T08:04:09;3.08;;;2.85;;
67564;SDS011;54393;53.556;49.216;2022-12-11T08:06:37;3.10;;;2.67;;
67564;SDS011;54393;53.556;49.216;2022-12-11T08:09:05;2.65;;;2.40;;
67564;SDS011;54393;53.556;49.216;2022-12-11T08:11:33;2.70;;;2.50;;
67564;SDS011;54393;53.556;49.216;2022-12-11T08:13:59;2.55;;;2.35;;
67564;SDS011;54393;53.556;49.216;2022-12-11T08:16:27;3.60;;;2.87;;
67564;SDS011;54393;53.556;49.216;2022-12-11T08:18:53;2.80;;;2.60;;
67564;SDS011;54393;53.556;49.216;2022-12-11T08:21:21;3.10;;;2.55;;
67564;SDS011;54393;53.556;49.216;2022-12-11T08:23:49;3.17;;;2.90;;
67564;SDS011;54393;53.556;49.216;2022-12-11T08:26:21;2.75;;;2.55;;
67564;SDS011;54393;53.556;49.216;2022-12-11T08:28:51;2.97;;;2.60;;
67564;SDS011;54393;53.556;49.216;2022-12-11T08:31:18;2.95;;;2.67;;
67564;SDS011;54393;53.556;49.216;2022-12-11T08:33:45;3.05;;;2.85;;
67564;SDS011;54393;53.556;49.216;2022-12-11T08:36:13;2.65;;;2.45;;
67564;SDS011;54393;53.556;49.216;2022-12-11T08:38:41;3.55;;;2.65;;
67564;SDS011;54393;53.556;49.216;2022-12-11T08:41:15;3.05;;;2.70;;
67564;SDS011;54393;53.556;49.216;2022-12-11T08:43:45;3.97;;;2.92;;
67564;SDS011;54393;53.556;49.216;2022-12-11T08:46:12;4.05;;;2.70;;
67564;SDS011;54393;53.556;49.216;2022-12-11T08:48:39;3.00;;;2.80;;
67564;SDS011;54393;53.556;49.216;2022-12-11T08:51:07;2.95;;;2.65;;
67564;SDS011;54393;53.556;49.216;2022-12-11T08:53:38;5.97;;;2.72;;
67564;SDS011;54393;53.556;49.216;2022-12-11T08:56:06;3.65;;;3.00;;
67564;SDS011;54393;53.556;49.216;2022-12-11T08:58:40;2.97;;;2.67;;
67564;SDS011;54393;53.556;49.216;2022-12-11T09:01:08;2.90;;;2.70;;
67564;SDS011;54393;53.556;49.216;2022-12-11T09:03:36;4.57;;;2.78;;
67564;SDS011;54393;53.556;49.216;2022-12-11T09:06:08;3.30;;;2.53;;
67564;SDS011;54393;53.556;49.216;2022-12-11T09:08:36;5.25;;;3.35;;
67564;SDS011;54393;53.556;49.216;2022-12-11T09:11:07;3.45;;;2.80;;
67564;SDS011;54393;53.556;49.216;2022-12-11T09:13:36;3.53;;;2.33;;
67564;SDS011;54393;53.556;49.216;2022-12-11T09:16:04;3.78;;;2.80;;
67564;SDS011;54393;53.556;49.216;2022-12-11T09:18:32;6.40;;;2.92;;
67564;SDS011;54393;53.556;49.216;2022-12-11T09:20:59;3.58;;;3.03;;
67564;SDS011;54393;53.556;49.216;2022-12-11T09:23:26;3.55;;;3.05;;
67564;SDS011;54393;53.556;49.216;2022-12-11T09:25:53;2.80;;;2.60;;
67564;SDS011;54393;53.556;49.216;2022-12-11T09:28:19;3.37;;;3.05;;
67564;SDS011;54393;53.556;49.216;2022-12-11T09:30:46;3.70;;;2.87;;
67564;SDS011;54393;53.556;49.216;2022-12-11T09:33:13;2.90;;;2.70;;
67564;SDS011;54393;53.556;49.216;2022-12-11T09:35:39;4.00;;;3.08;;
67564;SDS011;54393;53.556;49.216;2022-12-11T09:38:06;3.30;;;3.00;;
67564;SDS011;54393;53.556;49.216;2022-12-11T09:40:37;3.40;;;2.60;;
67564;SDS011;54393;53.556;49.216;2022-12-11T09:43:08;3.35;;;3.05;;
67564;SDS011;54393;53.556;49.216;2022-12-11T09:46:06;3.70;;;2.97;;
67564;SDS011;54393;53.556;49.216;2022-12-11T09:48:35;3.62;;;3.15;;
67564;SDS011;54393;53.556;49.216;2022-12-11T09:51:04;4.28;;;2.70;;
67564;SDS011;54393;53.556;49.216;2022-12-11T09:54:02;2.95;;;2.75;;
67564;SDS011;54393;53.556;49.216;2022-12-11T09:56:36;3.15;;;2.85;;
67564;SDS011;54393;53.556;49.216;2022-12-11T10:01:45;4.15;;;2.92;;
67564;SDS011;54393;53.556;49.216;2022-12-11T10:04:18;4.25;;;3.00;;
67564;SDS011;54393;53.556;49.216;2022-12-11T10:07:08;2.97;;;2.67;;
67564;SDS011;54393;53.556;49.216;2022-12-11T10:09:59;3.55;;;2.95;;
67564;SDS011;54393;53.556;49.216;2022-12-11T10:15:21;4.85;;;3.12;;
67564;SDS011;54393;53.556;49.216;2022-12-11T10:17:53;4.82;;;3.05;;
67564;SDS011;54393;53.556;49.216;2022-12-11T10:20:25;3.47;;;2.70;;
67564;SDS011;54393;53.556;49.216;2022-12-11T10:23:05;3.72;;;3.17;;
67564;SDS011;54393;53.556;49.216;2022-12-11T10:25:40;4.05;;;2.67;;
67564;SDS011;54393;53.556;49.216;2022-12-11T10:28:39;4.65;;;2.75;;
67564;SDS011;54393;53.556;49.216;2022-12-11T10:36:16;3.50;;;2.70;;
67564;SDS011;54393;53.556;49.216;2022-12-11T10:38:45;4.37;;;2.80;;
67564;SDS011;54393;53.556;49.216;2022-12-11T10:41:19;3.40;;;2.80;;
67564;SDS011;54393;53.556;49.216;2022-12-11T10:43:59;2.65;;;2.42;;
67564;SDS011;54393;53.556;49.216;2022-12-11T10:46:27;3.83;;;2.87;;
67564;SDS011;54393;53.556;49.216;2022-12-11T10:48:58;3.15;;;2.83;;
67564;SDS011;54393;53.556;49.216;2022-12-11T10:56:44;3.58;;;2.70;;
67564;SDS011;54393;53.556;49.216;2022-12-11T10:59:15;2.95;;;2.67;;
67564;SDS011;54393;53.556;49.216;2022-12-11T11:04:56;4.57;;;2.65;;
67564;SDS011;54393;53.556;49.216;2022-12-11T11:07:25;3.95;;;2.78;;
67564;SDS011;54393;53.556;49.216;2022-12-11T11:10:09;3.50;;;2.42;;
67564;SDS011;54393;53.556;49.216;2022-12-11T11:12:47;3.10;;;2.90;;
67564;SDS011;54393;53.556;49.216;2022-12-11T11:15:29;2.85;;;2.47;;
67564;SDS011;54393;53.556;49.216;2022-12-11T11:17:57;5.72;;;2.92;;
67564;SDS011;54393;53.556;49.216;2022-12-11T11:20:33;3.05;;;2.67;;
67564;SDS011;54393;53.556;49.216;2022-12-11T11:23:01;3.37;;;2.50;;
67564;SDS011;54393;53.556;49.216;2022-12-11T11:25:30;4.20;;;3.15;;
67564;SDS011;54393;53.556;49.216;2022-12-11T11:28:04;3.05;;;2.75;;
67564;SDS011;54393;53.556;49.216;2022-12-11T11:30:38;3.05;;;2.80;;
67564;SDS011;54393;53.556;49.216;2022-12-11T11:33:19;2.87;;;2.67;;
67564;SDS011;54393;53.556;49.216;2022-12-11T11:35:50;3.50;;;2.75;;
67564;SDS011;54393;53.556;49.216;2022-12-11T11:38:18;3.40;;;3.10;;
67564;SDS011;54393;53.556;49.216;2022-12-11T11:41:24;3.03;;;2.55;;
67564;SDS011;54393;53.556;49.216;2022-12-11T11:44:03;4.00;;;2.85;;
67564;SDS011;54393;53.556;49.216;2022-12-11T11:46:36;2.45;;;2.25;;
67564;SDS011;54393;53.556;49.216;2022-12-11T11:54:49;3.22;;;2.62;;
67564;SDS011;54393;53.556;49.216;2022-12-11T11:57:38;4.32;;;2.67;;
67564;SDS011;54393;53.556;49.216;2022-12-11T12:00:23;3.15;;;2.58;;
67564;SDS011;54393;53.556;49.216;2022-12-11T12:02:52;2.87;;;2.55;;
67564;SDS011;54393;53.556;49.216;2022-12-11T12:25:02;3.12;;;2.70;;
67564;SDS011;54393;53.556;49.216;2022-12-11T12:33:24;3.85;;;2.50;;
67564;SDS011;54393;53.556;49.216;2022-12-11T12:35:57;3.08;;;2.28;;
67564;SDS011;54393;53.556;49.216;2022-12-11T12:44:18;3.75;;;2.55;;
67564;SDS011;54393;53.556;49.216;2022-12-11T12:46:54;3.10;;;2.78;;
67564;SDS011;54393;53.556;49.216;2022-12-11T12:49:37;3.08;;;2.78;;
67564;SDS011;54393;53.556;49.216;2022-12-11T12:52:05;3.05;;;2.83;;
67564;SDS011;54393;53.556;49.216;2022-12-11T12:54:40;3.00;;;2.70;;
67564;SDS011;54393;53.556;49.216;2022-12-11T12:57:28;3.30;;;2.53;;
67564;SDS011;54393;53.556;49.216;2022-12-11T12:59:56;3.22;;;3.00;;
67564;SDS011;54393;53.556;49.216;2022-12-11T13:02:22;4.53;;;2.97;;
67564;SDS011;54393;53.556;49.216;2022-12-11T13:04:56;3.45;;;2.62;;
67564;SDS011;54393;53.556;49.216;2022-12-11T13:07:28;2.90;;;2.70;;
67564;SDS011;54393;53.556;49.216;2022-12-11T13:09:56;3.20;;;2.90;;
67564;SDS011;54393;53.556;49.216;2022-12-11T13:12:58;3.10;;;2.78;;
67564;SDS011;54393;53.556;49.216;2022-12-11T13:15:40;3.60;;;2.87;;
67564;SDS011;54393;53.556;49.216;2022-12-11T13:20:56;3.08;;;2.58;;
67564;SDS011;54393;53.556;49.216;2022-12-11T13:26:02;2.87;;;2.67;;
67564;SDS011;54393;53.556;49.216;2022-12-11T13:28:30;3.72;;;2.92;;
67564;SDS011;54393;53.556;49.216;2022-12-11T13:33:42;2.95;;;2.70;;
67564;SDS011;54393;53.556;49.216;2022-12-11T13:39:03;3.20;;;2.90;;
67564;SDS011;54393;53.556;49.216;2022-12-11T13:41:55;3.75;;;3.35;;
67564;SDS011;54393;53.556;49.216;2022-12-11T13:44:28;3.22;;;2.95;;
67564;SDS011;54393;53.556;49.216;2022-12-11T13:46:58;4.05;;;3.25;;
67564;SDS011;54393;53.556;49.216;2022-12-11T13:49:32;2.90;;;2.70;;
67564;SDS011;54393;53.556;49.216;2022-12-11T13:52:01;2.95;;;2.75;;
67564;SDS011;54393;53.556;49.216;2022-12-11T13:54:29;3.00;;;2.80;;
67564;SDS011;54393;53.556;49.216;2022-12-11T13:57:00;2.78;;;2.45;;
67564;SDS011;54393;53.556;49.216;2022-12-11T13:59:31;2.87;;;2.67;;
67564;SDS011;54393;53.556;49.216;2022-12-11T14:02:02;3.17;;;2.58;;
67564;SDS011;54393;53.556;49.216;2022-12-11T14:04:39;3.35;;;3.05;;
67564;SDS011;54393;53.556;49.216;2022-12-11T14:07:07;4.20;;;2.78;;
67564;SDS011;54393;53.556;49.216;2022-12-11T14:09:34;3.15;;;2.95;;
67564;SDS011;54393;53.556;49.216;2022-12-11T14:12:03;3.80;;;3.10;;
67564;SDS011;54393;53.556;49.216;2022-12-11T14:14:40;3.40;;;3.10;;
67564;SDS011;54393;53.556;49.216;2022-12-11T14:17:12;3.47;;;3.17;;
67564;SDS011;54393;53.556;49.216;2022-12-11T14:19:44;3.33;;;2.85;;
67564;SDS011;54393;53.556;49.216;2022-12-11T14:22:44;3.30;;;3.10;;
67564;SDS011;54393;53.556;49.216;2022-12-11T14:25:15;3.15;;;2.83;;
67564;SDS011;54393;53.556;49.216;2022-12-11T14:27:52;3.10;;;2.90;;
67564;SDS011;54393;53.556;49.216;2022-12-11T14:30:21;3.22;;;3.03;;
67564;SDS011;54393;53.556;49.216;2022-12-11T14:32:53;3.03;;;2.75;;
67564;SDS011;54393;53.556;49.216;2022-12-11T14:35:28;3.30;;;3.05;;
67564;SDS011;54393;53.556;49.216;2022-12-11T14:37:59;3.37;;;3.08;;
67564;SDS011;54393;53.556;49.216;2022-12-11T14:40:30;3.28;;;2.97;;
67564;SDS011;54393;53.556;49.216;2022-12-11T14:43:01;3.45;;;3.03;;
67564;SDS011;54393;53.556;49.216;2022-12-11T14:45:32;3.20;;;2.90;;
67564;SDS011;54393;53.556;49.216;2022-12-11T14:48:22;3.45;;;3.15;;
67564;SDS011;54393;53.556;49.216;2022-12-11T14:50:56;3.62;;;2.60;;
67564;SDS011;54393;53.556;49.216;2022-12-11T14:55:51;3.47;;;3.17;;
67564;SDS011;54393;53.556;49.216;2022-12-11T14:58:22;2.90;;;2.70;;
67564;SDS011;54393;53.556;49.216;2022-12-11T15:00:58;3.00;;;2.80;;
67564;SDS011;54393;53.556;49.216;2022-12-11T15:03:39;3.08;;;2.70;;
67564;SDS011;54393;53.556;49.216;2022-12-11T15:06:23;3.00;;;2.80;;
67564;SDS011;54393;53.556;49.216;2022-12-11T15:08:52;2.78;;;2.58;;
67564;SDS011;54393;53.556;49.216;2022-12-11T15:11:19;3.30;;;3.00;;
67564;SDS011;54393;53.556;49.216;2022-12-11T15:13:51;3.80;;;2.90;;
67564;SDS011;54393;53.556;49.216;2022-12-11T15:16:20;3.22;;;2.92;;
67564;SDS011;54393;53.556;49.216;2022-12-11T15:18:48;2.85;;;2.65;;
67564;SDS011;54393;53.556;49.216;2022-12-11T15:21:16;2.97;;;2.78;;
67564;SDS011;54393;53.556;49.216;2022-12-11T15:23:48;3.17;;;2.87;;
67564;SDS011;54393;53.556;49.216;2022-12-11T15:32:14;3.37;;;2.70;;
67564;SDS011;54393;53.556;49.216;2022-12-11T15:37:24;3.60;;;2.90;;
67564;SDS011;54393;53.556;49.216;2022-12-11T15:39:53;3.33;;;2.85;;
67564;SDS011;54393;53.556;49.216;2022-12-11T15:42:53;2.87;;;2.65;;
67564;SDS011;54393;53.556;49.216;2022-12-11T15:45:14;3.03;;;2.83;;
67564;SDS011;54393;53.556;49.216;2022-12-11T15:47:42;2.40;;;2.20;;
67564;SDS011;54393;53.556;49.216;2022-12-11T15:50:16;4.65;;;2.92;;
67564;SDS011;54393;53.556;49.216;2022-12-11T15:52:47;2.87;;;2.55;;
67564;SDS011;54393;53.556;49.216;2022-12-11T15:55:15;2.92;;;2.70;;
67564;SDS011;54393;53.556;49.216;2022-12-11T15:57:44;3.12;;;2.92;;
67564;SDS011;54393;53.556;49.216;2022-12-11T16:00:16;3.03;;;2.78;;
67564;SDS011;54393;53.556;49.216;2022-12-11T16:02:44;3.40;;;2.47;;
67564;SDS011;54393;53.556;49.216;2022-12-11T16:05:10;4.22;;;2.62;;
67564;SDS011;54393;53.556;49.216;2022-12-11T16:07:37;2.87;;;2.67;;
67564;SDS011;54393;53.556;49.216;2022-12-11T16:10:04;2.90;;;2.62;;
67564;SDS011;54393;53.556;49.216;2022-12-11T16:12:31;3.05;;;2.75;;
67564;SDS011;54393;53.556;49.216;2022-12-11T16:14:58;2.80;;;2.50;;
67564;SDS011;54393;53.556;49.216;2022-12-11T16:17:24;2.70;;;2.50;;
67564;SDS011;54393;53.556;49.216;2022-12-11T16:19:52;3.17;;;2.65;;
67564;SDS011;54393;53.556;49.216;2022-12-11T16:22:18;2.70;;;2.50;;
67564;SDS011;54393;53.556;49.216;2022-12-11T16:24:45;5.07;;;3.20;;
67564;SDS011;54393;53.556;49.216;2022-12-11T16:27:11;2.90;;;2.62;;
67564;SDS011;54393;53.556;49.216;2022-12-11T16:29:39;3.22;;;2.92;;